sensor_id;sensor_type;location;lat;lon;timestamp;P1;durP1;ratioP1;P2;durP2;ratioP2
63370;SDS011;49504;48.336;14.472;2022-11-06T00:02:46;2.63;;;1.13;;
63370;SDS011;49504;48.336;14.472;2022-11-06T00:07:47;2.45;;;1.00;;
63370;SDS011;49504;48.336;14.472;2022-11-06T00:12:48;2.88;;;1.10;;
63370;SDS011;49504;48.336;14.472;2022-11-06T00:17:50;2.47;;;0.90;;
63370;SDS011;49504;48.336;14.472;2022-11-06T00:22:51;2.60;;;1.10;;
63370;SDS011;49504;48.336;14.472;2022-11-06T00:29:48;2.50;;;0.93;;
63370;SDS011;49504;48.336;14.472;2022-11-06T00:34:49;2.60;;;1.13;;
63370;SDS011;49504;48.336;14.472;2022-11-06T00:39:50;2.63;;;1.02;;
63370;SDS011;49504;48.336;14.472;2022-11-06T00:44:52;2.42;;;0.93;;
63370;SDS011;49504;48.336;14.472;2022-11-06T00:49:53;2.17;;;0.80;;
63370;SDS011;49504;48.336;14.472;2022-11-06T00:54:54;1.88;;;0.75;;
63370;SDS011;49504;48.336;14.472;2022-11-06T00:59:57;2.58;;;0.90;;
63370;SDS011;49504;48.336;14.472;2022-11-06T01:04:57;2.83;;;1.00;;
63370;SDS011;49504;48.336;14.472;2022-11-06T01:09:58;2.42;;;0.90;;
63370;SDS011;49504;48.336;14.472;2022-11-06T01:15:01;2.17;;;0.90;;
63370;SDS011;49504;48.336;14.472;2022-11-06T01:20:03;2.35;;;0.90;;
63370;SDS011;49504;48.336;14.472;2022-11-06T01:27:17;2.15;;;0.77;;
63370;SDS011;49504;48.336;14.472;2022-11-06T01:32:18;2.53;;;1.02;;
63370;SDS011;49504;48.336;14.472;2022-11-06T01:40:13;2.67;;;1.05;;
63370;SDS011;49504;48.336;14.472;2022-11-06T01:45:20;2.15;;;0.70;;
63370;SDS011;49504;48.336;14.472;2022-11-06T01:50:28;2.20;;;0.80;;
63370;SDS011;49504;48.336;14.472;2022-11-06T01:55:32;1.80;;;0.60;;
63370;SDS011;49504;48.336;14.472;2022-11-06T02:00:37;2.22;;;0.75;;
63370;SDS011;49504;48.336;14.472;2022-11-06T02:05:38;2.22;;;0.88;;
63370;SDS011;49504;48.336;14.472;2022-11-06T02:10:41;2.60;;;0.82;;
63370;SDS011;49504;48.336;14.472;2022-11-06T02:15:44;1.75;;;0.70;;
63370;SDS011;49504;48.336;14.472;2022-11-06T02:20:54;1.67;;;0.60;;
63370;SDS011;49504;48.336;14.472;2022-11-06T02:29:40;2.70;;;0.93;;
63370;SDS011;49504;48.336;14.472;2022-11-06T02:34:47;2.20;;;0.80;;
63370;SDS011;49504;48.336;14.472;2022-11-06T02:39:51;1.70;;;0.70;;
63370;SDS011;49504;48.336;14.472;2022-11-06T02:44:55;2.20;;;0.90;;
63370;SDS011;49504;48.336;14.472;2022-11-06T02:49:59;2.10;;;0.90;;
63370;SDS011;49504;48.336;14.472;2022-11-06T03:01:36;2.67;;;1.02;;
63370;SDS011;49504;48.336;14.472;2022-11-06T03:06:41;1.92;;;0.65;;
63370;SDS011;49504;48.336;14.472;2022-11-06T03:11:49;2.50;;;0.90;;
63370;SDS011;49504;48.336;14.472;2022-11-06T03:17:00;2.42;;;0.95;;
63370;SDS011;49504;48.336;14.472;2022-11-06T03:22:10;1.65;;;0.60;;
63370;SDS011;49504;48.336;14.472;2022-11-06T03:27:16;2.10;;;0.77;;
63370;SDS011;49504;48.336;14.472;2022-11-06T03:36:22;2.25;;;0.80;;
63370;SDS011;49504;48.336;14.472;2022-11-06T03:41:29;2.00;;;0.70;;
63370;SDS011;49504;48.336;14.472;2022-11-06T03:56:02;2.33;;;0.80;;
63370;SDS011;49504;48.336;14.472;2022-11-06T04:01:09;2.03;;;0.90;;
63370;SDS011;49504;48.336;14.472;2022-11-06T04:06:14;2.22;;;0.82;;
63370;SDS011;49504;48.336;14.472;2022-11-06T04:11:23;2.05;;;0.77;;
63370;SDS011;49504;48.336;14.472;2022-11-06T04:16:29;1.88;;;0.57;;
63370;SDS011;49504;48.336;14.472;2022-11-06T04:23:33;2.53;;;0.80;;
63370;SDS011;49504;48.336;14.472;2022-11-06T04:28:46;3.13;;;0.90;;
63370;SDS011;49504;48.336;14.472;2022-11-06T04:33:54;2.45;;;0.80;;
63370;SDS011;49504;48.336;14.472;2022-11-06T04:39:03;2.15;;;0.77;;
63370;SDS011;49504;48.336;14.472;2022-11-06T04:44:12;1.90;;;0.70;;
63370;SDS011;49504;48.336;14.472;2022-11-06T04:49:18;2.10;;;0.75;;
63370;SDS011;49504;48.336;14.472;2022-11-06T05:02:31;3.92;;;1.05;;
63370;SDS011;49504;48.336;14.472;2022-11-06T05:09:01;4.82;;;0.93;;
63370;SDS011;49504;48.336;14.472;2022-11-06T05:14:02;3.25;;;1.17;;
63370;SDS011;49504;48.336;14.472;2022-11-06T05:19:03;3.67;;;1.38;;
63370;SDS011;49504;48.336;14.472;2022-11-06T05:24:06;3.88;;;1.42;;
63370;SDS011;49504;48.336;14.472;2022-11-06T05:29:07;3.05;;;1.42;;
63370;SDS011;49504;48.336;14.472;2022-11-06T05:34:10;2.97;;;1.48;;
63370;SDS011;49504;48.336;14.472;2022-11-06T05:40:37;3.30;;;1.90;;
63370;SDS011;49504;48.336;14.472;2022-11-06T05:50:02;4.00;;;1.83;;
63370;SDS011;49504;48.336;14.472;2022-11-06T05:55:04;5.25;;;2.70;;
63370;SDS011;49504;48.336;14.472;2022-11-06T06:00:07;4.10;;;2.03;;
63370;SDS011;49504;48.336;14.472;2022-11-06T06:05:12;4.38;;;2.30;;
63370;SDS011;49504;48.336;14.472;2022-11-06T06:10:14;3.75;;;2.25;;
63370;SDS011;49504;48.336;14.472;2022-11-06T06:15:15;3.88;;;2.20;;
63370;SDS011;49504;48.336;14.472;2022-11-06T06:20:18;3.78;;;2.00;;
63370;SDS011;49504;48.336;14.472;2022-11-06T06:25:19;2.90;;;1.80;;
63370;SDS011;49504;48.336;14.472;2022-11-06T06:32:29;4.18;;;2.28;;
63370;SDS011;49504;48.336;14.472;2022-11-06T06:37:30;3.70;;;1.92;;
63370;SDS011;49504;48.336;14.472;2022-11-06T06:42:32;6.10;;;1.50;;
63370;SDS011;49504;48.336;14.472;2022-11-06T06:47:34;2.92;;;1.55;;
63370;SDS011;49504;48.336;14.472;2022-11-06T06:52:35;3.42;;;1.85;;
63370;SDS011;49504;48.336;14.472;2022-11-06T06:57:36;3.15;;;1.80;;
63370;SDS011;49504;48.336;14.472;2022-11-06T07:02:38;3.25;;;2.10;;
63370;SDS011;49504;48.336;14.472;2022-11-06T07:07:39;3.80;;;2.22;;
63370;SDS011;49504;48.336;14.472;2022-11-06T07:12:40;4.15;;;2.67;;
63370;SDS011;49504;48.336;14.472;2022-11-06T07:17:43;4.82;;;2.33;;
63370;SDS011;49504;48.336;14.472;2022-11-06T07:22:44;4.68;;;2.33;;
63370;SDS011;49504;48.336;14.472;2022-11-06T07:27:45;4.88;;;3.10;;
63370;SDS011;49504;48.336;14.472;2022-11-06T07:32:47;4.45;;;2.85;;
63370;SDS011;49504;48.336;14.472;2022-11-06T07:37:48;6.60;;;3.28;;
63370;SDS011;49504;48.336;14.472;2022-11-06T07:42:49;5.65;;;3.13;;
63370;SDS011;49504;48.336;14.472;2022-11-06T07:47:53;4.55;;;2.78;;
63370;SDS011;49504;48.336;14.472;2022-11-06T07:53:21;8.55;;;3.53;;
63370;SDS011;49504;48.336;14.472;2022-11-06T07:58:22;6.30;;;3.40;;
63370;SDS011;49504;48.336;14.472;2022-11-06T08:03:25;5.47;;;3.35;;
63370;SDS011;49504;48.336;14.472;2022-11-06T08:08:28;7.63;;;3.67;;
63370;SDS011;49504;48.336;14.472;2022-11-06T08:16:13;4.97;;;3.47;;
63370;SDS011;49504;48.336;14.472;2022-11-06T08:21:14;6.30;;;3.33;;
63370;SDS011;49504;48.336;14.472;2022-11-06T08:26:15;6.03;;;3.42;;
63370;SDS011;49504;48.336;14.472;2022-11-06T08:31:18;6.30;;;4.05;;
63370;SDS011;49504;48.336;14.472;2022-11-06T08:36:19;6.78;;;4.28;;
63370;SDS011;49504;48.336;14.472;2022-11-06T08:41:20;5.80;;;3.75;;
63370;SDS011;49504;48.336;14.472;2022-11-06T08:48:12;10.02;;;3.47;;
63370;SDS011;49504;48.336;14.472;2022-11-06T08:55:09;8.90;;;4.00;;
63370;SDS011;49504;48.336;14.472;2022-11-06T09:00:11;37.58;;;22.30;;
63370;SDS011;49504;48.336;14.472;2022-11-06T09:05:13;52.58;;;26.33;;
63370;SDS011;49504;48.336;14.472;2022-11-06T09:10:16;56.15;;;31.30;;
63370;SDS011;49504;48.336;14.472;2022-11-06T09:15:17;49.13;;;29.50;;
63370;SDS011;49504;48.336;14.472;2022-11-06T09:20:19;59.97;;;43.28;;
63370;SDS011;49504;48.336;14.472;2022-11-06T09:25:23;52.95;;;36.88;;
63370;SDS011;49504;48.336;14.472;2022-11-06T09:30:24;22.13;;;12.95;;
63370;SDS011;49504;48.336;14.472;2022-11-06T09:35:28;26.10;;;14.93;;
63370;SDS011;49504;48.336;14.472;2022-11-06T09:40:33;110.05;;;73.18;;
63370;SDS011;49504;48.336;14.472;2022-11-06T09:45:37;25.65;;;16.30;;
63370;SDS011;49504;48.336;14.472;2022-11-06T09:50:41;46.95;;;29.70;;
63370;SDS011;49504;48.336;14.472;2022-11-06T09:58:56;114.03;;;74.40;;
63370;SDS011;49504;48.336;14.472;2022-11-06T10:03:59;307.30;;;219.25;;
63370;SDS011;49504;48.336;14.472;2022-11-06T10:09:04;316.73;;;264.88;;
63370;SDS011;49504;48.336;14.472;2022-11-06T10:14:09;242.60;;;182.18;;
63370;SDS011;49504;48.336;14.472;2022-11-06T10:19:22;165.68;;;113.15;;
63370;SDS011;49504;48.336;14.472;2022-11-06T10:24:32;125.07;;;89.22;;
63370;SDS011;49504;48.336;14.472;2022-11-06T10:29:50;139.93;;;98.72;;
63370;SDS011;49504;48.336;14.472;2022-11-06T10:35:04;123.10;;;88.85;;
63370;SDS011;49504;48.336;14.472;2022-11-06T10:40:14;91.03;;;65.30;;
63370;SDS011;49504;48.336;14.472;2022-11-06T10:45:19;101.68;;;69.45;;
63370;SDS011;49504;48.336;14.472;2022-11-06T10:50:22;102.72;;;71.80;;
63370;SDS011;49504;48.336;14.472;2022-11-06T11:04:31;99.38;;;72.47;;
63370;SDS011;49504;48.336;14.472;2022-11-06T11:09:32;100.35;;;76.15;;
63370;SDS011;49504;48.336;14.472;2022-11-06T11:14:33;95.28;;;70.97;;
63370;SDS011;49504;48.336;14.472;2022-11-06T11:19:37;98.82;;;71.57;;
63370;SDS011;49504;48.336;14.472;2022-11-06T11:24:40;89.97;;;64.85;;
63370;SDS011;49504;48.336;14.472;2022-11-06T11:29:59;75.07;;;56.70;;
63370;SDS011;49504;48.336;14.472;2022-11-06T11:35:07;75.07;;;56.20;;
63370;SDS011;49504;48.336;14.472;2022-11-06T11:43:39;67.93;;;53.35;;
63370;SDS011;49504;48.336;14.472;2022-11-06T11:48:42;69.57;;;52.85;;
63370;SDS011;49504;48.336;14.472;2022-11-06T11:53:44;73.05;;;51.88;;
63370;SDS011;49504;48.336;14.472;2022-11-06T11:58:50;66.60;;;47.15;;
63370;SDS011;49504;48.336;14.472;2022-11-06T12:07:23;60.72;;;44.80;;
63370;SDS011;49504;48.336;14.472;2022-11-06T12:16:02;55.03;;;40.53;;
63370;SDS011;49504;48.336;14.472;2022-11-06T12:21:07;51.92;;;39.72;;
63370;SDS011;49504;48.336;14.472;2022-11-06T12:26:18;50.90;;;36.10;;
63370;SDS011;49504;48.336;14.472;2022-11-06T12:31:29;54.25;;;34.58;;
63370;SDS011;49504;48.336;14.472;2022-11-06T12:44:55;40.80;;;27.58;;
63370;SDS011;49504;48.336;14.472;2022-11-06T12:50:01;44.08;;;28.55;;
63370;SDS011;49504;48.336;14.472;2022-11-06T12:55:17;37.63;;;25.67;;
63370;SDS011;49504;48.336;14.472;2022-11-06T13:00:25;40.65;;;26.00;;
63370;SDS011;49504;48.336;14.472;2022-11-06T13:05:35;35.50;;;23.70;;
63370;SDS011;49504;48.336;14.472;2022-11-06T13:10:48;36.20;;;22.92;;
63370;SDS011;49504;48.336;14.472;2022-11-06T13:19:35;32.35;;;20.48;;
63370;SDS011;49504;48.336;14.472;2022-11-06T13:28:47;30.52;;;19.20;;
63370;SDS011;49504;48.336;14.472;2022-11-06T13:33:53;29.00;;;18.38;;
63370;SDS011;49504;48.336;14.472;2022-11-06T13:38:59;26.27;;;16.67;;
63370;SDS011;49504;48.336;14.472;2022-11-06T13:44:36;26.80;;;16.40;;
63370;SDS011;49504;48.336;14.472;2022-11-06T13:53:19;23.67;;;14.32;;
63370;SDS011;49504;48.336;14.472;2022-11-06T13:58:31;23.23;;;14.50;;
63370;SDS011;49504;48.336;14.472;2022-11-06T14:09:39;17.90;;;10.47;;
63370;SDS011;49504;48.336;14.472;2022-11-06T14:14:43;15.07;;;9.73;;
63370;SDS011;49504;48.336;14.472;2022-11-06T14:19:58;15.43;;;9.88;;
63370;SDS011;49504;48.336;14.472;2022-11-06T14:30:56;16.38;;;8.32;;
63370;SDS011;49504;48.336;14.472;2022-11-06T14:35:58;13.35;;;7.75;;
63370;SDS011;49504;48.336;14.472;2022-11-06T14:46:54;5.35;;;2.08;;
63370;SDS011;49504;48.336;14.472;2022-11-06T14:51:58;5.20;;;1.90;;
63370;SDS011;49504;48.336;14.472;2022-11-06T15:02:31;5.00;;;2.60;;
63370;SDS011;49504;48.336;14.472;2022-11-06T15:07:50;5.15;;;2.72;;
63370;SDS011;49504;48.336;14.472;2022-11-06T15:13:04;5.65;;;2.53;;
63370;SDS011;49504;48.336;14.472;2022-11-06T15:25:37;4.90;;;2.40;;
63370;SDS011;49504;48.336;14.472;2022-11-06T15:30:47;4.80;;;2.40;;
63370;SDS011;49504;48.336;14.472;2022-11-06T15:35:51;5.20;;;2.00;;
63370;SDS011;49504;48.336;14.472;2022-11-06T15:40:59;4.45;;;2.17;;
63370;SDS011;49504;48.336;14.472;2022-11-06T15:46:01;5.35;;;1.90;;
63370;SDS011;49504;48.336;14.472;2022-11-06T15:51:18;6.30;;;1.77;;
63370;SDS011;49504;48.336;14.472;2022-11-06T15:56:24;4.70;;;1.75;;
63370;SDS011;49504;48.336;14.472;2022-11-06T16:01:30;4.45;;;1.95;;
63370;SDS011;49504;48.336;14.472;2022-11-06T16:06:32;4.97;;;1.95;;
63370;SDS011;49504;48.336;14.472;2022-11-06T16:11:35;4.45;;;1.73;;
63370;SDS011;49504;48.336;14.472;2022-11-06T16:16:37;4.03;;;1.58;;
63370;SDS011;49504;48.336;14.472;2022-11-06T16:21:40;4.35;;;1.55;;
63370;SDS011;49504;48.336;14.472;2022-11-06T16:26:52;4.43;;;1.85;;
63370;SDS011;49504;48.336;14.472;2022-11-06T16:32:00;3.65;;;1.85;;
63370;SDS011;49504;48.336;14.472;2022-11-06T16:37:04;3.83;;;1.40;;
63370;SDS011;49504;48.336;14.472;2022-11-06T16:42:22;3.53;;;1.60;;
63370;SDS011;49504;48.336;14.472;2022-11-06T16:47:26;4.60;;;1.88;;
63370;SDS011;49504;48.336;14.472;2022-11-06T16:52:28;4.03;;;1.60;;
63370;SDS011;49504;48.336;14.472;2022-11-06T16:57:34;4.43;;;1.95;;
63370;SDS011;49504;48.336;14.472;2022-11-06T17:05:11;4.13;;;1.77;;
63370;SDS011;49504;48.336;14.472;2022-11-06T17:17:36;4.55;;;1.58;;
63370;SDS011;49504;48.336;14.472;2022-11-06T17:26:17;4.45;;;1.58;;
63370;SDS011;49504;48.336;14.472;2022-11-06T17:31:21;3.70;;;1.52;;
63370;SDS011;49504;48.336;14.472;2022-11-06T17:36:23;4.40;;;1.80;;
63370;SDS011;49504;48.336;14.472;2022-11-06T17:41:28;3.90;;;1.70;;
63370;SDS011;49504;48.336;14.472;2022-11-06T17:46:30;6.93;;;1.42;;
63370;SDS011;49504;48.336;14.472;2022-11-06T17:51:33;3.90;;;1.60;;
63370;SDS011;49504;48.336;14.472;2022-11-06T17:58:51;3.40;;;1.50;;
63370;SDS011;49504;48.336;14.472;2022-11-06T18:03:52;4.28;;;1.52;;
63370;SDS011;49504;48.336;14.472;2022-11-06T18:09:19;3.58;;;1.30;;
63370;SDS011;49504;48.336;14.472;2022-11-06T18:15:43;2.92;;;1.38;;
63370;SDS011;49504;48.336;14.472;2022-11-06T18:20:44;4.38;;;1.38;;
63370;SDS011;49504;48.336;14.472;2022-11-06T18:25:51;3.72;;;1.40;;
63370;SDS011;49504;48.336;14.472;2022-11-06T18:30:56;4.80;;;1.73;;
63370;SDS011;49504;48.336;14.472;2022-11-06T18:36:00;5.07;;;1.50;;
63370;SDS011;49504;48.336;14.472;2022-11-06T18:41:06;4.68;;;2.10;;
63370;SDS011;49504;48.336;14.472;2022-11-06T18:46:10;4.15;;;1.55;;
63370;SDS011;49504;48.336;14.472;2022-11-06T18:51:13;4.13;;;1.90;;
63370;SDS011;49504;48.336;14.472;2022-11-06T18:56:16;3.92;;;1.60;;
63370;SDS011;49504;48.336;14.472;2022-11-06T19:01:19;4.45;;;1.17;;
63370;SDS011;49504;48.336;14.472;2022-11-06T19:06:20;3.80;;;1.65;;
63370;SDS011;49504;48.336;14.472;2022-11-06T19:13:12;3.40;;;1.30;;
63370;SDS011;49504;48.336;14.472;2022-11-06T19:22:53;3.78;;;1.52;;
63370;SDS011;49504;48.336;14.472;2022-11-06T19:27:54;3.80;;;1.90;;
63370;SDS011;49504;48.336;14.472;2022-11-06T19:32:55;5.70;;;1.65;;
63370;SDS011;49504;48.336;14.472;2022-11-06T19:37:58;4.85;;;1.55;;
63370;SDS011;49504;48.336;14.472;2022-11-06T19:42:59;4.95;;;1.60;;
63370;SDS011;49504;48.336;14.472;2022-11-06T19:48:00;4.10;;;1.42;;
63370;SDS011;49504;48.336;14.472;2022-11-06T19:53:02;4.20;;;2.10;;
63370;SDS011;49504;48.336;14.472;2022-11-06T19:58:03;5.05;;;1.60;;
63370;SDS011;49504;48.336;14.472;2022-11-06T20:03:04;3.53;;;1.48;;
63370;SDS011;49504;48.336;14.472;2022-11-06T20:08:07;3.92;;;1.30;;
63370;SDS011;49504;48.336;14.472;2022-11-06T20:13:09;4.25;;;1.30;;
63370;SDS011;49504;48.336;14.472;2022-11-06T20:18:10;4.03;;;1.58;;
63370;SDS011;49504;48.336;14.472;2022-11-06T20:23:12;3.35;;;1.45;;
63370;SDS011;49504;48.336;14.472;2022-11-06T20:28:13;4.18;;;1.70;;
63370;SDS011;49504;48.336;14.472;2022-11-06T20:33:14;4.03;;;1.60;;
63370;SDS011;49504;48.336;14.472;2022-11-06T20:38:17;3.28;;;1.33;;
63370;SDS011;49504;48.336;14.472;2022-11-06T20:43:18;3.67;;;1.40;;
63370;SDS011;49504;48.336;14.472;2022-11-06T20:48:19;3.92;;;1.55;;
63370;SDS011;49504;48.336;14.472;2022-11-06T20:53:21;3.88;;;1.90;;
63370;SDS011;49504;48.336;14.472;2022-11-06T20:58:22;4.50;;;1.67;;
63370;SDS011;49504;48.336;14.472;2022-11-06T21:03:23;3.70;;;1.40;;
63370;SDS011;49504;48.336;14.472;2022-11-06T21:11:41;4.10;;;1.67;;
63370;SDS011;49504;48.336;14.472;2022-11-06T21:16:42;3.70;;;1.58;;
63370;SDS011;49504;48.336;14.472;2022-11-06T21:21:43;3.45;;;1.67;;
63370;SDS011;49504;48.336;14.472;2022-11-06T21:26:45;3.40;;;1.50;;
63370;SDS011;49504;48.336;14.472;2022-11-06T21:31:46;3.13;;;1.30;;
63370;SDS011;49504;48.336;14.472;2022-11-06T21:36:47;3.63;;;1.42;;
63370;SDS011;49504;48.336;14.472;2022-11-06T21:41:49;4.25;;;1.77;;
63370;SDS011;49504;48.336;14.472;2022-11-06T21:49:29;5.47;;;2.13;;
63370;SDS011;49504;48.336;14.472;2022-11-06T21:54:29;5.45;;;2.28;;
63370;SDS011;49504;48.336;14.472;2022-11-06T21:59:30;6.95;;;2.83;;
63370;SDS011;49504;48.336;14.472;2022-11-06T22:04:33;7.82;;;2.88;;
63370;SDS011;49504;48.336;14.472;2022-11-06T22:09:33;8.45;;;3.00;;
63370;SDS011;49504;48.336;14.472;2022-11-06T22:14:34;5.53;;;2.30;;
63370;SDS011;49504;48.336;14.472;2022-11-06T22:21:17;8.52;;;3.15;;
63370;SDS011;49504;48.336;14.472;2022-11-06T22:26:21;5.97;;;2.60;;
63370;SDS011;49504;48.336;14.472;2022-11-06T22:31:24;6.25;;;2.60;;
63370;SDS011;49504;48.336;14.472;2022-11-06T22:36:27;7.30;;;3.00;;
63370;SDS011;49504;48.336;14.472;2022-11-06T22:41:28;6.30;;;2.70;;
63370;SDS011;49504;48.336;14.472;2022-11-06T22:46:29;6.10;;;2.45;;
63370;SDS011;49504;48.336;14.472;2022-11-06T22:51:31;5.90;;;2.40;;
63370;SDS011;49504;48.336;14.472;2022-11-06T22:56:33;5.95;;;2.40;;
63370;SDS011;49504;48.336;14.472;2022-11-06T23:01:34;5.10;;;2.20;;
63370;SDS011;49504;48.336;14.472;2022-11-06T23:06:37;4.32;;;1.98;;
63370;SDS011;49504;48.336;14.472;2022-11-06T23:11:38;5.68;;;2.38;;
63370;SDS011;49504;48.336;14.472;2022-11-06T23:18:19;4.70;;;1.88;;
63370;SDS011;49504;48.336;14.472;2022-11-06T23:23:20;4.10;;;2.10;;
63370;SDS011;49504;48.336;14.472;2022-11-06T23:28:21;5.15;;;2.20;;
63370;SDS011;49504;48.336;14.472;2022-11-06T23:33:24;4.65;;;1.80;;
63370;SDS011;49504;48.336;14.472;2022-11-06T23:43:09;4.43;;;1.65;;
63370;SDS011;49504;48.336;14.472;2022-11-06T23:48:11;4.70;;;1.83;;
63370;SDS011;49504;48.336;14.472;2022-11-06T23:53:13;3.83;;;1.58;;
63370;SDS011;49504;48.336;14.472;2022-11-06T23:58:16;4.90;;;2.03;;
